Time;durP1;ratioP1;P1;durP2;ratioP2;P2;SDS_P1;SDS_P2;PMS_P1;PMS_P2;Temp;Humidity;BMP_temperature;BMP_pressure;BME280_temperature;BME280_humidity;BME280_pressure;Samples;Min_cycle;Max_cycle;Signal;HPM_P1;HPM_P2
2023/05/16 00:00:26;;;;;;;19.92;3.10;;;8.60;99.90;;;;;;5033139;28;20082;-74
2023/05/16 00:02:52;;;;;;;16.63;2.92;;;8.60;99.90;;;;;;5031807;28;20124;-74
2023/05/16 00:05:18;;;;;;;13.13;3.03;;;8.50;99.90;;;;;;5066049;28;20037;-73
2023/05/16 00:07:45;;;;;;;16.70;3.58;;;8.50;99.90;;;;;;5034596;28;20087;-73
2023/05/16 00:10:11;;;;;;;12.48;2.30;;;8.50;99.90;;;;;;5017369;28;20045;-73
2023/05/16 00:12:38;;;;;;;17.88;2.50;;;8.50;99.90;;;;;;5033089;28;20107;-74
2023/05/16 00:15:07;;;;;;;15.55;3.15;;;8.40;99.90;;;;;;5066288;28;20128;-74
2023/05/16 00:17:34;;;;;;;19.00;2.58;;;8.40;99.90;;;;;;5015252;28;20041;-74
2023/05/16 00:20:01;;;;;;;18.02;2.78;;;8.40;99.90;;;;;;5016635;28;20065;-74
2023/05/16 00:22:27;;;;;;;14.45;2.45;;;8.40;99.90;;;;;;5061171;28;20067;-74
2023/05/16 00:24:53;;;;;;;21.50;2.60;;;8.40;99.90;;;;;;5060173;28;20065;-74
2023/05/16 00:27:18;;;;;;;18.20;3.17;;;8.40;99.90;;;;;;5031981;28;20186;-74
2023/05/16 00:29:44;;;;;;;19.88;2.78;;;8.40;99.90;;;;;;5032809;28;20476;-74
2023/05/16 00:32:10;;;;;;;11.18;1.83;;;8.40;99.90;;;;;;5029965;28;20416;-73
2023/05/16 00:34:35;;;;;;;17.65;2.70;;;8.30;99.90;;;;;;5033021;28;20305;-74
2023/05/16 00:37:01;;;;;;;14.13;2.60;;;8.30;99.90;;;;;;5032067;28;20044;-74
2023/05/16 00:39:27;;;;;;;15.80;2.00;;;8.30;99.90;;;;;;5033491;28;20057;-74
2023/05/16 00:41:53;;;;;;;12.77;1.80;;;8.30;99.90;;;;;;5031322;28;20049;-74
2023/05/16 00:44:19;;;;;;;18.50;2.58;;;8.20;99.90;;;;;;5031399;28;20040;-74
2023/05/16 00:46:45;;;;;;;13.60;2.10;;;8.20;99.90;;;;;;5030303;28;20051;-74
2023/05/16 00:49:11;;;;;;;21.50;2.15;;;8.20;99.90;;;;;;5028312;28;20123;-74
2023/05/16 00:51:38;;;;;;;14.95;3.03;;;8.10;99.90;;;;;;5030973;28;20451;-74
2023/05/16 00:54:05;;;;;;;14.80;2.22;;;8.10;99.90;;;;;;5032464;28;20045;-74
2023/05/16 00:56:31;;;;;;;18.58;2.22;;;8.10;99.90;;;;;;5031449;28;20033;-74
2023/05/16 00:58:57;;;;;;;13.02;2.58;;;8.00;99.90;;;;;;5032163;28;20492;-74
2023/05/16 01:01:26;;;;;;;15.00;2.67;;;8.00;99.90;;;;;;5031905;28;20042;-74
2023/05/16 01:03:52;;;;;;;18.10;2.47;;;8.00;99.90;;;;;;5032715;28;20048;-74
2023/05/16 01:06:18;;;;;;;16.42;2.15;;;7.90;99.90;;;;;;5032096;28;20045;-74
2023/05/16 01:08:44;;;;;;;18.17;3.05;;;7.90;99.90;;;;;;5030044;28;20044;-74
2023/05/16 01:11:33;;;;;;;17.40;2.28;;;7.90;99.90;;;;;;5033349;28;20611;-74
2023/05/16 01:14:38;;;;;;;16.33;2.20;;;7.90;99.90;;;;;;5059175;28;20049;-74
2023/05/16 01:17:35;;;;;;;13.05;1.98;;;7.90;99.90;;;;;;5029066;28;20033;-74
2023/05/16 01:20:16;;;;;;;15.77;2.42;;;7.80;99.90;;;;;;5030224;28;20112;-74
2023/05/16 01:22:51;;;;;;;14.85;1.88;;;7.80;99.90;;;;;;5030751;28;20144;-73
2023/05/16 01:25:30;;;;;;;12.88;1.60;;;7.80;99.90;;;;;;5032311;28;20087;-74
2023/05/16 01:27:57;;;;;;;19.73;2.00;;;7.80;99.90;;;;;;5030183;28;20219;-74
2023/05/16 01:30:24;;;;;;;18.80;2.08;;;7.70;99.90;;;;;;5032145;28;20049;-74
2023/05/16 01:32:50;;;;;;;17.73;2.45;;;7.70;99.90;;;;;;5012174;28;20047;-74
2023/05/16 01:35:17;;;;;;;12.63;2.00;;;7.70;99.90;;;;;;5029499;28;20073;-74
2023/05/16 01:37:50;;;;;;;16.67;2.47;;;7.60;99.90;;;;;;5047401;28;20047;-74
2023/05/16 01:40:33;;;;;;;13.18;1.98;;;7.60;99.90;;;;;;5028464;28;20038;-74
2023/05/16 01:43:03;;;;;;;12.52;2.38;;;7.60;99.90;;;;;;5029740;28;20052;-74
2023/05/16 01:45:32;;;;;;;17.55;2.65;;;7.50;99.90;;;;;;5031130;28;20083;-74
2023/05/16 01:48:06;;;;;;;15.73;2.25;;;7.50;99.90;;;;;;5031036;28;20641;-74
2023/05/16 01:50:34;;;;;;;16.92;2.38;;;7.50;99.90;;;;;;5029418;28;20047;-74
2023/05/16 01:53:08;;;;;;;14.50;2.38;;;7.50;99.90;;;;;;5049260;28;20045;-74
2023/05/16 01:55:33;;;;;;;18.85;2.85;;;7.50;99.90;;;;;;5028719;28;20064;-75
2023/05/16 01:58:06;;;;;;;11.07;1.75;;;7.50;99.90;;;;;;5047455;28;20076;-74
2023/05/16 02:00:32;;;;;;;14.43;2.25;;;7.50;99.90;;;;;;5031233;28;20508;-74
2023/05/16 02:02:58;;;;;;;13.45;2.30;;;7.40;99.90;;;;;;5030397;28;20102;-74
2023/05/16 02:05:24;;;;;;;18.88;2.58;;;7.40;99.90;;;;;;5031259;28;20071;-74
2023/05/16 02:07:50;;;;;;;15.80;2.92;;;7.40;99.90;;;;;;5014887;28;20071;-74
2023/05/16 02:10:15;;;;;;;16.08;2.15;;;7.30;99.90;;;;;;5045584;28;20127;-74
2023/05/16 02:12:41;;;;;;;16.23;2.33;;;7.30;99.90;;;;;;5029965;28;20037;-74
2023/05/16 02:15:08;;;;;;;15.63;2.10;;;7.30;99.90;;;;;;5061877;28;20489;-74
2023/05/16 02:17:34;;;;;;;16.58;2.35;;;7.20;99.90;;;;;;5029962;28;20047;-74
2023/05/16 02:20:05;;;;;;;15.77;2.55;;;7.20;99.90;;;;;;5031123;28;20559;-74
2023/05/16 02:22:32;;;;;;;13.52;1.85;;;7.20;99.90;;;;;;5060965;28;20040;-74
2023/05/16 02:24:59;;;;;;;14.88;2.38;;;7.10;99.90;;;;;;5028786;28;20037;-74
2023/05/16 02:27:25;;;;;;;13.63;2.58;;;7.10;99.90;;;;;;5030240;28;20047;-74
2023/05/16 02:29:50;;;;;;;13.98;2.00;;;7.10;99.90;;;;;;5029234;28;20106;-74
2023/05/16 02:32:16;;;;;;;12.20;1.90;;;7.00;99.90;;;;;;5027879;28;20037;-74
2023/05/16 02:34:42;;;;;;;16.85;2.08;;;7.00;99.90;;;;;;5031258;28;20037;-74
2023/05/16 02:37:08;;;;;;;13.63;1.85;;;7.00;99.90;;;;;;5029059;28;20115;-74
2023/05/16 02:39:33;;;;;;;12.20;2.33;;;7.00;99.90;;;;;;5030797;28;20091;-74
2023/05/16 02:42:00;;;;;;;9.20;1.45;;;6.90;99.90;;;;;;5030191;28;20053;-74
2023/05/16 02:44:26;;;;;;;11.77;2.20;;;6.90;99.90;;;;;;5030053;28;20107;-74
2023/05/16 02:46:51;;;;;;;15.13;3.17;;;6.90;99.90;;;;;;5028768;28;20064;-74
2023/05/16 02:49:17;;;;;;;10.60;1.95;;;6.80;99.90;;;;;;5064049;28;20037;-74
2023/05/16 02:51:43;;;;;;;14.27;1.73;;;6.80;99.90;;;;;;5029403;28;20452;-74
2023/05/16 02:54:09;;;;;;;22.17;2.42;;;6.70;99.90;;;;;;5030368;28;20045;-74
2023/05/16 02:56:35;;;;;;;15.43;2.25;;;6.70;99.90;;;;;;5029439;28;20036;-74
2023/05/16 02:59:00;;;;;;;14.70;1.83;;;6.70;99.90;;;;;;5029029;28;20045;-73
2023/05/16 03:01:26;;;;;;;13.30;2.28;;;6.60;99.90;;;;;;5029912;28;20037;-74
2023/05/16 03:03:52;;;;;;;16.75;2.47;;;6.60;99.90;;;;;;5044460;28;20366;-74
2023/05/16 03:06:18;;;;;;;13.18;1.65;;;6.50;99.90;;;;;;5045871;28;20098;-74
2023/05/16 03:08:43;;;;;;;12.70;1.95;;;6.50;99.90;;;;;;5029551;28;20431;-75
2023/05/16 03:11:09;;;;;;;10.35;2.25;;;6.40;99.90;;;;;;5029802;28;20053;-74
2023/05/16 03:13:35;;;;;;;11.07;1.95;;;6.40;99.90;;;;;;5030678;28;20102;-74
2023/05/16 03:16:01;;;;;;;11.88;1.65;;;6.40;99.90;;;;;;5026907;28;20357;-74
2023/05/16 03:18:26;;;;;;;16.58;1.88;;;6.30;99.90;;;;;;5010712;28;20033;-74
2023/05/16 03:20:52;;;;;;;12.30;2.30;;;6.30;99.90;;;;;;5026371;28;20424;-74
2023/05/16 03:23:21;;;;;;;16.02;2.05;;;6.30;99.90;;;;;;5026521;28;20045;-74
2023/05/16 03:25:47;;;;;;;17.25;2.15;;;6.30;99.90;;;;;;5044072;28;20037;-74
2023/05/16 03:28:13;;;;;;;14.18;1.98;;;6.20;99.90;;;;;;5046509;28;20067;-74
2023/05/16 03:30:38;;;;;;;12.43;2.08;;;6.20;99.90;;;;;;5029907;28;20041;-74
2023/05/16 03:33:04;;;;;;;12.57;1.88;;;6.20;99.90;;;;;;5028778;28;20043;-74
2023/05/16 03:35:31;;;;;;;11.75;1.92;;;6.20;99.90;;;;;;5051722;28;20494;-74
2023/05/16 03:37:57;;;;;;;12.65;1.80;;;6.10;99.90;;;;;;5033146;28;20056;-74
2023/05/16 03:40:23;;;;;;;12.35;1.70;;;6.10;99.90;;;;;;5032871;28;20369;-74
2023/05/16 03:42:49;;;;;;;16.33;3.13;;;6.10;99.90;;;;;;5033090;28;20083;-72
2023/05/16 03:45:15;;;;;;;13.65;2.05;;;6.10;99.90;;;;;;5031986;28;20029;-74
2023/05/16 03:47:41;;;;;;;12.98;2.05;;;6.10;99.90;;;;;;5034211;28;20439;-73
2023/05/16 03:50:08;;;;;;;15.82;3.10;;;6.10;99.90;;;;;;5048333;28;20125;-73
2023/05/16 03:52:34;;;;;;;18.75;2.40;;;6.10;99.90;;;;;;5032630;28;20044;-73
2023/05/16 03:55:03;;;;;;;13.25;1.65;;;6.10;99.90;;;;;;5050552;28;20060;-73
2023/05/16 03:57:31;;;;;;;14.75;2.47;;;6.10;99.90;;;;;;5033177;28;20044;-73
2023/05/16 03:59:57;;;;;;;9.63;2.05;;;6.10;99.90;;;;;;5017837;28;20116;-73
2023/05/16 04:02:22;;;;;;;18.13;1.88;;;6.20;99.90;;;;;;5016997;28;20472;-73
2023/05/16 04:04:48;;;;;;;10.70;1.55;;;6.20;99.90;;;;;;5048941;28;20033;-73
2023/05/16 04:07:14;;;;;;;13.73;2.50;;;6.20;99.90;;;;;;5033536;28;20466;-74
2023/05/16 04:09:40;;;;;;;11.30;2.22;;;6.20;99.90;;;;;;5033996;28;20077;-73
2023/05/16 04:12:06;;;;;;;10.27;1.83;;;6.20;99.90;;;;;;5032950;28;20474;-73
2023/05/16 04:14:33;;;;;;;14.63;1.80;;;6.20;99.90;;;;;;5033638;28;20465;-73
2023/05/16 04:16:59;;;;;;;11.23;2.05;;;6.30;99.90;;;;;;5064290;28;20045;-73
2023/05/16 04:19:24;;;;;;;14.35;2.15;;;6.30;99.90;;;;;;5064692;28;20110;-73
2023/05/16 04:21:51;;;;;;;10.82;2.10;;;6.30;99.90;;;;;;5033250;28;20132;-73
2023/05/16 04:24:17;;;;;;;8.65;1.40;;;6.30;99.90;;;;;;5034109;28;20056;-73
2023/05/16 04:26:43;;;;;;;14.05;1.50;;;6.30;99.90;;;;;;5033021;28;20124;-73
2023/05/16 04:29:10;;;;;;;13.07;2.25;;;6.30;99.90;;;;;;5065759;28;20041;-73
2023/05/16 04:31:36;;;;;;;9.07;1.80;;;6.40;99.90;;;;;;5032895;28;20240;-73
2023/05/16 04:34:02;;;;;;;13.10;2.10;;;6.40;99.90;;;;;;5033650;28;20091;-73
2023/05/16 04:36:29;;;;;;;10.68;1.67;;;6.40;99.90;;;;;;5014082;28;20037;-73
2023/05/16 04:38:55;;;;;;;15.82;1.80;;;6.50;99.90;;;;;;5033655;28;20048;-73
2023/05/16 04:41:22;;;;;;;13.32;2.33;;;6.50;99.90;;;;;;5032459;28;20060;-73
2023/05/16 04:43:48;;;;;;;13.80;2.30;;;6.60;99.90;;;;;;5063956;28;20052;-73
2023/05/16 04:46:14;;;;;;;10.60;1.98;;;6.70;99.90;;;;;;5033229;28;20401;-73
2023/05/16 04:48:40;;;;;;;11.18;1.85;;;6.70;99.90;;;;;;5032627;28;20033;-73
2023/05/16 04:51:06;;;;;;;10.55;2.35;;;6.90;99.90;;;;;;5044073;28;20130;-73
2023/05/16 04:53:32;;;;;;;12.30;2.10;;;6.90;99.90;;;;;;5049777;28;20037;-72
2023/05/16 04:55:58;;;;;;;11.90;2.30;;;7.10;99.90;;;;;;5030831;28;20044;-72
2023/05/16 04:58:24;;;;;;;10.05;2.05;;;7.20;99.90;;;;;;5065196;28;20045;-73
2023/05/16 05:00:51;;;;;;;11.85;1.60;;;7.40;99.90;;;;;;5032396;28;20079;-73
2023/05/16 05:03:17;;;;;;;11.02;1.75;;;7.60;99.90;;;;;;5032638;28;20508;-72
2023/05/16 05:05:44;;;;;;;9.75;1.70;;;7.90;99.90;;;;;;5016614;28;20127;-73
2023/05/16 05:08:10;;;;;;;11.70;1.50;;;8.20;99.90;;;;;;5031946;28;20040;-73
2023/05/16 05:10:36;;;;;;;13.10;1.75;;;8.50;99.90;;;;;;5033318;28;20048;-73
2023/05/16 05:13:01;;;;;;;13.15;2.22;;;8.90;99.90;;;;;;5031276;28;20048;-73
2023/05/16 05:15:27;;;;;;;11.88;1.92;;;8.90;99.90;;;;;;5033692;28;20079;-72
2023/05/16 05:17:53;;;;;;;11.13;1.48;;;9.00;99.90;;;;;;5031515;28;20039;-73
2023/05/16 05:20:19;;;;;;;12.45;1.63;;;9.00;99.90;;;;;;5031410;28;20124;-73
2023/05/16 05:22:44;;;;;;;12.80;1.60;;;8.90;99.90;;;;;;5032740;28;20409;-72
2023/05/16 05:25:10;;;;;;;9.75;1.58;;;8.90;99.90;;;;;;5033319;28;20041;-72
2023/05/16 05:27:36;;;;;;;11.35;1.98;;;8.90;99.90;;;;;;5029061;28;20113;-72
2023/05/16 05:30:02;;;;;;;15.43;2.13;;;9.10;99.90;;;;;;5029817;28;20052;-72
2023/05/16 05:32:28;;;;;;;11.05;1.45;;;9.10;99.90;;;;;;5064704;28;20068;-73
2023/05/16 05:34:54;;;;;;;11.80;1.52;;;9.10;99.90;;;;;;5032827;28;20519;-73
2023/05/16 05:37:19;;;;;;;9.75;1.40;;;9.20;99.90;;;;;;5028967;28;20033;-73
2023/05/16 05:39:45;;;;;;;11.70;2.10;;;9.20;99.90;;;;;;5032693;28;20087;-72
2023/05/16 05:42:11;;;;;;;13.30;1.67;;;9.20;99.90;;;;;;5015661;28;20053;-72
2023/05/16 05:44:37;;;;;;;9.70;1.60;;;9.30;99.90;;;;;;5031597;28;20067;-73
2023/05/16 05:47:06;;;;;;;12.88;1.95;;;9.30;99.90;;;;;;5030921;28;20090;-73
2023/05/16 05:49:32;;;;;;;11.70;1.90;;;9.50;99.90;;;;;;5030765;28;20037;-72
2023/05/16 05:51:58;;;;;;;9.55;1.83;;;9.60;99.90;;;;;;5048133;28;20048;-72
2023/05/16 05:54:24;;;;;;;10.23;1.60;;;9.70;99.90;;;;;;5031320;28;20033;-72
2023/05/16 05:56:50;;;;;;;10.85;1.42;;;9.90;99.90;;;;;;5028589;28;20068;-72
2023/05/16 05:59:16;;;;;;;13.15;1.60;;;9.90;99.90;;;;;;5030611;28;20414;-73
2023/05/16 06:01:44;;;;;;;11.20;1.30;;;10.00;99.90;;;;;;5030281;28;20091;-72
2023/05/16 06:04:10;;;;;;;9.70;1.75;;;10.10;99.90;;;;;;5064448;28;21073;-72
2023/05/16 06:06:36;;;;;;;13.98;1.85;;;10.20;99.90;;;;;;5031248;28;20112;-72
2023/05/16 06:09:02;;;;;;;9.13;1.52;;;10.20;99.90;;;;;;5066100;28;20041;-72
2023/05/16 06:11:28;;;;;;;11.15;1.58;;;10.30;99.90;;;;;;5047880;28;20033;-72
2023/05/16 06:13:54;;;;;;;12.18;2.13;;;10.30;99.90;;;;;;5032332;28;20103;-72
2023/05/16 06:16:24;;;;;;;8.85;1.60;;;10.30;99.90;;;;;;5028801;28;20043;-72
2023/05/16 06:18:50;;;;;;;12.13;1.38;;;10.40;99.90;;;;;;5029998;28;20041;-72
2023/05/16 06:21:15;;;;;;;9.60;1.40;;;10.60;99.90;;;;;;5030267;28;20044;-73
2023/05/16 06:23:41;;;;;;;9.20;1.13;;;10.70;99.90;;;;;;5031295;28;20029;-72
2023/05/16 06:26:07;;;;;;;9.30;1.23;;;10.70;99.90;;;;;;5030968;28;20045;-72
2023/05/16 06:28:33;;;;;;;10.43;1.38;;;10.80;99.90;;;;;;5030339;28;20553;-72
2023/05/16 06:30:59;;;;;;;14.35;6.85;;;10.80;99.90;;;;;;5031721;28;20508;-72
2023/05/16 06:33:25;;;;;;;7.65;1.10;;;10.90;99.90;;;;;;5030044;28;20127;-72
2023/05/16 06:35:51;;;;;;;10.40;1.30;;;11.00;99.90;;;;;;5028403;28;20041;-72
2023/05/16 06:38:20;;;;;;;9.40;1.27;;;11.10;99.90;;;;;;5030785;28;20063;-73
2023/05/16 06:40:46;;;;;;;8.35;1.63;;;11.20;99.90;;;;;;5031243;28;20037;-72
2023/05/16 06:43:12;;;;;;;8.57;1.42;;;11.40;99.90;;;;;;5063580;28;20665;-72
2023/05/16 06:45:38;;;;;;;7.38;1.73;;;11.40;99.90;;;;;;5030548;28;20040;-72
2023/05/16 06:48:06;;;;;;;8.65;1.35;;;11.40;99.90;;;;;;5026397;28;20461;-72
2023/05/16 06:50:31;;;;;;;8.68;1.30;;;11.50;99.90;;;;;;5030972;28;20436;-73
2023/05/16 06:52:57;;;;;;;6.28;1.35;;;11.40;99.90;;;;;;5030882;28;20041;-72
2023/05/16 06:55:23;;;;;;;7.45;0.98;;;11.50;99.90;;;;;;5030849;28;20076;-72
2023/05/16 06:57:49;;;;;;;7.55;1.42;;;11.30;99.90;;;;;;5028098;28;20048;-73
2023/05/16 07:00:15;;;;;;;4.72;0.77;;;11.20;99.90;;;;;;5030179;28;20037;-73
2023/05/16 07:02:41;;;;;;;5.15;0.57;;;11.00;99.90;;;;;;5063770;28;20403;-73
2023/05/16 07:05:07;;;;;;;3.55;0.40;;;10.90;99.90;;;;;;5030523;28;20123;-73
2023/05/16 07:07:33;;;;;;;5.28;0.70;;;10.70;99.90;;;;;;5032416;28;20160;-72
2023/05/16 07:09:58;;;;;;;2.00;0.40;;;10.60;99.90;;;;;;5067165;28;20068;-72
2023/05/16 07:12:25;;;;;;;4.03;0.80;;;10.60;99.90;;;;;;5034962;28;20048;-74
2023/05/16 07:14:51;;;;;;;4.05;0.45;;;10.80;99.90;;;;;;5035201;28;20400;-73
2023/05/16 07:17:16;;;;;;;4.78;0.68;;;11.00;99.90;;;;;;5033697;28;20037;-72
2023/05/16 07:19:42;;;;;;;6.70;0.88;;;11.20;99.90;;;;;;5035636;28;20067;-72
2023/05/16 07:22:08;;;;;;;2.60;0.68;;;11.40;99.90;;;;;;5035828;28;20040;-73
2023/05/16 07:24:35;;;;;;;4.57;0.60;;;11.60;99.90;;;;;;5033300;28;20036;-73
2023/05/16 07:27:00;;;;;;;8.20;1.33;;;11.80;99.90;;;;;;5068703;28;20435;-72
2023/05/16 07:29:26;;;;;;;4.82;1.10;;;12.00;99.90;;;;;;5034183;28;20040;-73
2023/05/16 07:31:52;;;;;;;4.88;1.00;;;12.20;99.90;;;;;;5033269;28;20452;-73
2023/05/16 07:34:17;;;;;;;6.80;0.80;;;12.20;99.90;;;;;;5034455;28;20056;-73
2023/05/16 07:36:43;;;;;;;9.43;1.60;;;12.40;99.90;;;;;;5032082;28;20069;-73
2023/05/16 07:39:09;;;;;;;9.50;1.42;;;12.50;99.90;;;;;;5033207;28;20516;-73
2023/05/16 07:41:35;;;;;;;7.10;0.98;;;12.60;99.90;;;;;;5034166;28;20056;-73
2023/05/16 07:44:00;;;;;;;6.82;1.58;;;12.70;99.90;;;;;;5065636;28;20064;-73
2023/05/16 07:46:26;;;;;;;6.85;1.20;;;13.00;99.90;;;;;;5019527;28;20119;-74
2023/05/16 07:48:52;;;;;;;6.00;0.93;;;13.00;99.90;;;;;;5018024;28;20112;-73
2023/05/16 07:51:18;;;;;;;3.03;0.60;;;12.80;99.90;;;;;;5034445;28;20045;-74
2023/05/16 07:53:43;;;;;;;2.88;0.40;;;12.80;99.90;;;;;;5034299;28;20412;-73
2023/05/16 07:56:09;;;;;;;4.05;0.80;;;12.50;99.90;;;;;;5034149;28;20045;-73
2023/05/16 07:58:35;;;;;;;2.85;0.60;;;12.30;99.90;;;;;;5033804;28;20051;-74
2023/05/16 08:01:01;;;;;;;3.05;0.70;;;12.40;99.90;;;;;;5034477;28;20052;-73
2023/05/16 08:03:26;;;;;;;3.97;0.52;;;12.60;99.90;;;;;;5030241;28;20047;-73
2023/05/16 08:05:52;;;;;;;3.88;0.70;;;12.80;99.90;;;;;;5034222;28;20079;-74
2023/05/16 08:08:18;;;;;;;4.50;0.70;;;13.00;99.90;;;;;;5032426;28;20165;-74
2023/05/16 08:10:44;;;;;;;5.15;0.63;;;13.10;99.90;;;;;;5031990;28;20045;-75
2023/05/16 08:13:09;;;;;;;4.75;0.80;;;13.30;99.90;;;;;;5032352;28;20139;-74
2023/05/16 08:15:35;;;;;;;9.05;3.80;;;13.60;99.90;;;;;;5017900;28;20032;-75
2023/05/16 08:18:01;;;;;;;5.32;0.95;;;13.40;99.90;;;;;;5031157;28;20492;-75
2023/05/16 08:20:27;;;;;;;4.00;1.35;;;13.30;99.90;;;;;;5030886;28;20099;-76
2023/05/16 08:22:53;;;;;;;4.95;0.82;;;13.30;99.90;;;;;;5065275;28;20600;-75
2023/05/16 08:25:20;;;;;;;6.88;1.00;;;13.80;99.90;;;;;;5032005;28;20072;-75
2023/05/16 08:27:48;;;;;;;7.70;1.42;;;14.30;99.90;;;;;;5064994;28;20037;-76
2023/05/16 08:30:13;;;;;;;9.50;2.00;;;15.00;99.90;;;;;;5033421;28;20570;-75
2023/05/16 08:32:39;;;;;;;10.40;1.80;;;15.50;99.90;;;;;;5015893;28;20322;-73
2023/05/16 08:35:06;;;;;;;7.95;1.27;;;15.60;99.90;;;;;;5033818;28;20132;-73
2023/05/16 08:37:32;;;;;;;7.45;1.10;;;15.60;99.90;;;;;;5032562;28;20037;-73
2023/05/16 08:39:58;;;;;;;6.45;0.98;;;15.70;99.60;;;;;;5017085;28;20052;-73
2023/05/16 08:42:24;;;;;;;5.45;1.20;;;15.90;99.90;;;;;;5033399;28;20093;-72
2023/05/16 08:44:49;;;;;;;3.92;0.77;;;15.50;98.80;;;;;;5031526;28;20451;-73
2023/05/16 08:47:20;;;;;;;4.75;0.70;;;15.10;96.10;;;;;;5032922;28;20039;-73
2023/05/16 08:49:47;;;;;;;4.88;0.73;;;14.40;99.30;;;;;;5064305;28;20041;-73
2023/05/16 08:52:16;;;;;;;8.45;0.95;;;13.60;99.90;;;;;;5030971;28;20033;-74
2023/05/16 08:54:43;;;;;;;5.57;0.90;;;13.10;99.90;;;;;;5033182;28;20037;-74
2023/05/16 08:57:09;;;;;;;10.38;1.58;;;12.70;99.90;;;;;;5032203;28;20037;-74
2023/05/16 08:59:35;;;;;;;3.80;0.73;;;12.80;99.90;;;;;;5031480;28;20095;-74
2023/05/16 09:02:00;;;;;;;5.47;1.33;;;13.50;99.90;;;;;;5033389;28;20041;-74
2023/05/16 09:04:26;;;;;;;6.38;1.60;;;14.10;99.90;;;;;;5033301;28;20358;-75
2023/05/16 09:06:52;;;;;;;7.63;1.30;;;14.70;99.90;;;;;;5032936;28;20098;-74
2023/05/16 09:09:18;;;;;;;4.60;1.17;;;15.20;99.90;;;;;;5065959;28;20465;-75
2023/05/16 09:11:44;;;;;;;6.65;1.30;;;15.50;99.90;;;;;;5019827;28;20397;-76
2023/05/16 09:14:10;;;;;;;6.47;1.48;;;15.40;99.90;;;;;;5030779;28;20037;-75
2023/05/16 09:16:36;;;;;;;4.35;0.85;;;14.70;99.90;;;;;;5033788;28;20442;-75
2023/05/16 09:19:03;;;;;;;4.95;0.85;;;14.40;99.90;;;;;;5029778;28;20056;-75
2023/05/16 09:21:33;;;;;;;3.92;0.73;;;14.60;99.90;;;;;;5032149;28;20442;-74
2023/05/16 09:24:06;;;;;;;5.30;1.10;;;15.20;99.90;;;;;;5031592;28;20044;-75
2023/05/16 09:26:33;;;;;;;7.93;0.90;;;15.50;99.90;;;;;;5011750;28;20029;-75
2023/05/16 09:29:00;;;;;;;6.90;1.35;;;15.80;99.90;;;;;;5030882;28;20041;-75
2023/05/16 09:31:30;;;;;;;9.05;1.02;;;16.00;99.90;;;;;;5032178;28;20029;-78
2023/05/16 09:33:56;;;;;;;6.13;0.90;;;16.10;99.00;;;;;;5029967;28;20041;-78
2023/05/16 09:36:22;;;;;;;5.22;0.95;;;16.20;99.00;;;;;;5061342;28;20434;-78
2023/05/16 09:38:50;;;;;;;6.20;1.05;;;16.30;96.60;;;;;;5033335;28;20036;-79
2023/05/16 09:41:16;;;;;;;5.40;1.08;;;16.60;95.80;;;;;;5032463;28;20136;-79
2023/05/16 09:43:42;;;;;;;5.45;1.00;;;16.40;95.00;;;;;;5031825;28;20465;-79
2023/05/16 09:46:13;;;;;;;29.52;22.83;;;16.30;94.80;;;;;;5030670;28;20523;-79
2023/05/16 09:48:45;;;;;;;6.25;1.48;;;16.20;95.00;;;;;;5014636;28;20056;-76
2023/05/16 09:51:11;;;;;;;7.35;1.13;;;15.60;95.10;;;;;;5030091;28;20405;-79
2023/05/16 09:53:37;;;;;;;7.07;0.93;;;15.00;93.30;;;;;;5030242;28;20447;-77
2023/05/16 09:56:10;;;;;;;8.88;1.20;;;15.00;95.40;;;;;;5032158;28;20052;-78
2023/05/16 09:58:37;;;;;;;5.05;0.80;;;15.50;94.40;;;;;;5063867;28;20140;-78
2023/05/16 10:01:04;;;;;;;5.75;0.85;;;16.00;93.20;;;;;;5015698;28;20048;-79
2023/05/16 10:03:32;;;;;;;6.93;0.85;;;16.10;92.80;;;;;;5047491;28;20543;-79
2023/05/16 10:05:59;;;;;;;6.47;1.20;;;15.90;91.50;;;;;;5030921;28;20083;-79
2023/05/16 10:08:25;;;;;;;8.45;1.30;;;15.70;92.50;;;;;;5031881;28;20095;-78
2023/05/16 10:10:55;;;;;;;5.70;0.95;;;15.50;92.60;;;;;;5032187;28;20052;-79
2023/05/16 10:13:23;;;;;;;5.35;0.80;;;15.20;94.30;;;;;;5029555;28;20493;-77
2023/05/16 10:15:51;;;;;;;5.47;0.85;;;15.10;95.90;;;;;;5066840;28;20051;-77
2023/05/16 10:18:21;;;;;;;11.57;8.50;;;15.30;96.60;;;;;;5027117;28;20045;-79
2023/05/16 10:20:51;;;;;;;10.48;4.80;;;15.50;97.10;;;;;;5046521;28;20401;-79
2023/05/16 10:23:18;;;;;;;5.40;0.95;;;15.90;96.60;;;;;;5029645;28;20040;-79
2023/05/16 10:25:46;;;;;;;6.88;1.02;;;16.10;97.10;;;;;;5015712;28;20148;-80
2023/05/16 10:28:13;;;;;;;4.80;1.17;;;16.30;97.40;;;;;;5031524;28;20041;-79
2023/05/16 10:30:42;;;;;;;7.53;1.30;;;16.20;95.90;;;;;;5015723;28;20114;-74
2023/05/16 10:33:13;;;;;;;6.07;1.13;;;16.00;95.80;;;;;;5062951;28;20480;-79
2023/05/16 10:35:39;;;;;;;3.83;0.90;;;15.90;97.20;;;;;;5027265;28;20037;-78
2023/05/16 10:38:08;;;;;;;5.85;1.13;;;15.80;95.40;;;;;;5064843;28;20266;-78
2023/05/16 10:40:35;;;;;;;6.55;0.95;;;16.10;96.20;;;;;;5014787;28;20351;-77
2023/05/16 10:43:02;;;;;;;5.05;0.80;;;16.00;93.50;;;;;;5028482;28;20053;-78
2023/05/16 10:45:29;;;;;;;6.03;1.05;;;15.90;93.40;;;;;;5065312;28;20072;-78
2023/05/16 10:47:57;;;;;;;4.95;0.98;;;16.30;92.90;;;;;;5030365;28;20031;-79
2023/05/16 10:50:50;;;;;;;5.13;0.90;;;16.60;91.10;;;;;;5063424;28;20503;-78
2023/05/16 10:53:20;;;;;;;3.70;0.80;;;16.80;89.10;;;;;;5026336;28;20088;-79
2023/05/16 10:55:58;;;;;;;16.52;11.35;;;16.90;86.30;;;;;;5012669;28;20041;-78
2023/05/16 10:58:37;;;;;;;7.35;1.08;;;16.30;85.30;;;;;;5025271;28;20037;-75
2023/05/16 11:01:21;;;;;;;6.75;0.82;;;15.40;88.60;;;;;;5035937;28;20346;-75
2023/05/16 11:03:59;;;;;;;;;;;14.50;94.20;;;;;;5069309;28;20068;-76
2023/05/16 11:06:32;;;;;;;4.85;0.82;;;13.90;98.10;;;;;;5038448;28;19928;-76
2023/05/16 11:11:45;;;;;;;4.00;0.55;;;14.70;99.90;;;;;;5039725;28;20412;-77
2023/05/16 11:14:32;;;;;;;6.47;0.70;;;15.30;99.40;;;;;;5039320;28;20119;-77
2023/05/16 11:17:02;;;;;;;6.18;0.80;;;15.40;95.80;;;;;;5040298;28;20135;-76
2023/05/16 11:19:38;;;;;;;3.97;0.93;;;15.10;95.80;;;;;;5039084;28;20053;-76
2023/05/16 11:22:15;;;;;;;5.13;0.73;;;14.90;95.50;;;;;;5074206;28;20033;-77
2023/05/16 11:25:07;;;;;;;4.00;0.70;;;15.00;96.60;;;;;;5073617;28;20203;-76
2023/05/16 11:27:46;;;;;;;4.97;0.88;;;15.60;96.70;;;;;;5054421;28;20041;-76
2023/05/16 11:30:18;;;;;;;6.03;1.00;;;16.10;97.50;;;;;;5037555;28;20045;-76
2023/05/16 11:32:45;;;;;;;6.80;1.45;;;16.60;96.90;;;;;;5069201;28;20044;-76
2023/05/16 11:35:17;;;;;;;3.72;1.10;;;17.00;95.80;;;;;;5037728;28;20401;-76
2023/05/16 11:37:46;;;;;;;5.85;1.08;;;17.40;95.40;;;;;;5018653;28;20045;-75
2023/05/16 11:40:13;;;;;;;6.28;1.17;;;17.60;91.40;;;;;;5068837;28;20365;-75
2023/05/16 11:42:41;;;;;;;5.03;1.27;;;17.40;89.40;;;;;;5035655;28;20056;-75
2023/05/16 11:45:07;;;;;;;9.05;1.42;;;16.80;86.60;;;;;;5037364;28;20041;-76
2023/05/16 11:47:36;;;;;;;6.88;1.50;;;16.80;90.00;;;;;;5036189;28;20044;-75
2023/05/16 11:50:11;;;;;;;4.40;1.45;;;16.90;89.50;;;;;;5036146;28;20049;-75
2023/05/16 11:52:37;;;;;;;7.07;1.02;;;16.90;88.20;;;;;;5034299;28;20045;-75
2023/05/16 11:55:09;;;;;;;5.60;1.00;;;16.60;87.50;;;;;;5021388;28;20052;-76
2023/05/16 11:57:36;;;;;;;5.00;1.25;;;16.10;84.00;;;;;;5037775;28;20056;-75
2023/05/16 12:00:26;;;;;;;5.68;0.90;;;15.20;91.30;;;;;;5047313;28;20037;-76
2023/05/16 12:02:53;;;;;;;5.13;1.10;;;14.20;99.70;;;;;;5038141;28;20044;-76
2023/05/16 12:05:24;;;;;;;4.72;0.90;;;13.50;99.90;;;;;;5038962;28;20223;-75
2023/05/16 12:07:53;;;;;;;4.00;1.08;;;13.10;99.90;;;;;;5077597;28;20072;-76
2023/05/16 12:10:19;;;;;;;5.40;1.02;;;12.90;99.90;;;;;;5041832;28;20532;-78
2023/05/16 12:12:47;;;;;;;7.03;1.30;;;12.80;99.90;;;;;;5040331;28;20591;-77
2023/05/16 12:15:14;;;;;;;4.90;1.52;;;12.60;99.90;;;;;;5043183;28;20040;-78
2023/05/16 12:17:41;;;;;;;7.43;1.33;;;12.80;99.90;;;;;;5035249;28;20574;-78
2023/05/16 12:20:12;;;;;;;4.22;1.10;;;13.50;99.90;;;;;;5043193;28;20079;-78
2023/05/16 12:22:42;;;;;;;5.78;1.20;;;14.00;99.90;;;;;;5045518;28;20051;-79
2023/05/16 12:25:31;;;;;;;4.78;1.50;;;14.50;99.90;;;;;;5044920;28;20084;-79
2023/05/16 12:27:59;;;;;;;7.30;1.30;;;15.20;99.90;;;;;;5047031;28;20147;-77
2023/05/16 12:30:26;;;;;;;6.65;1.50;;;15.50;99.90;;;;;;5077032;28;20423;-79
2023/05/16 12:33:09;;;;;;;5.68;1.50;;;15.70;99.90;;;;;;5040269;28;20052;-77
2023/05/16 12:35:38;;;;;;;7.78;1.48;;;15.80;99.90;;;;;;5047131;28;20071;-77
2023/05/16 12:38:06;;;;;;;7.20;1.60;;;16.30;99.90;;;;;;5047184;28;20238;-76
2023/05/16 12:40:32;;;;;;;21.05;10.38;;;16.40;99.90;;;;;;5078040;28;20048;-77
2023/05/16 12:42:58;;;;;;;10.98;4.63;;;16.10;98.00;;;;;;5044352;28;20045;-78
2023/05/16 12:45:26;;;;;;;6.03;1.73;;;15.70;98.50;;;;;;5079358;28;20037;-76
2023/05/16 12:47:52;;;;;;;6.28;1.10;;;15.20;99.60;;;;;;5079033;28;20163;-77
2023/05/16 12:50:18;;;;;;;5.63;1.45;;;14.80;99.90;;;;;;5046395;28;20049;-77
2023/05/16 12:52:48;;;;;;;6.60;1.60;;;14.80;99.90;;;;;;5044612;28;20041;-76